Terminal Aerodrome Forecast
Issued by NWS Paducah, KY

Home | Current Version | Previous Version | Text Only | Print | Product List | Glossary On
Versions: 1 2 3 4 5 6 7 8 9 10 11 12 13 14 15 16 17
000
FTUS43 KPAH 280200 AAB
TAFPAH
TAF AMD
KPAH 280231Z 2803/2824 35009KT 4SM -RA BR OVC006
     FM281400 36007KT P6SM BKN015
     FM281800 36008KT P6SM BKN035 OVC050=

USA.gov is the U.S. government's official web portal to all federal, state and local government web resources and services.